Terminal Aerodrome Forecast
Issued by NWS

Home | Current Version | Previous Version | Graphics & Text | Print | Product List | Glossary On
Versions: 1 2 3 4 5 6 7 8 9 10 11 12 13 14 15 16 17 18 19 20
111
FTUS43 KICT 271250 AAB
TAFCNU
TAF AMD
KCNU 271250Z 2713/2812 15007KT 2SM BR BKN002 OVC035
      TEMPO 2713/2715 4SM BR SCT002 BKN035
     FM271500 18005KT P6SM SCT040 BKN100
     FM272100 14007KT P6SM BKN050=

USA.gov is the U.S. government's official web portal to all federal, state and local government web resources and services.